createdAt,value
2018-03-04T13:07:54.410Z,975.73
2018-03-04T13:08:54.466Z,975.67
2018-03-04T13:10:49.503Z,975.69
2018-03-04T13:11:49.305Z,975.67
2018-03-04T13:13:43.733Z,975.65
2018-03-04T13:14:43.509Z,975.64
2018-03-04T13:16:36.636Z,975.59
2018-03-04T13:17:36.689Z,975.58
2018-03-04T13:18:36.767Z,975.56
2018-03-04T13:19:36.849Z,975.52
2018-03-04T13:20:36.928Z,975.51
2018-03-04T13:21:37.006Z,975.53
2018-03-04T13:22:37.080Z,975.51
2018-03-04T13:23:37.199Z,975.54
2018-03-04T13:24:37.243Z,975.49
2018-03-04T13:25:37.308Z,975.53
2018-03-04T13:26:37.465Z,975.49
2018-03-04T13:27:37.477Z,975.51
2018-03-04T13:28:37.557Z,975.46
2018-03-04T13:29:37.640Z,975.52
2018-03-04T13:30:37.709Z,975.50
2018-03-04T13:31:37.788Z,975.51
2018-03-04T13:32:37.882Z,975.48
2018-03-04T13:33:37.961Z,975.47
2018-03-04T13:34:38.035Z,975.53
2018-03-04T13:35:38.131Z,975.51
2018-03-04T13:36:38.202Z,975.48
2018-03-04T13:37:38.278Z,975.44
2018-03-04T13:38:38.354Z,975.44
2018-03-04T13:39:38.429Z,975.43
2018-03-04T13:40:38.532Z,975.42
2018-03-04T13:41:38.621Z,975.41
2018-03-04T13:42:38.662Z,975.40
2018-03-04T13:43:38.745Z,975.39
2018-03-04T13:44:38.851Z,975.39
2018-03-04T13:45:38.912Z,975.34
2018-03-04T13:46:38.984Z,975.36
2018-03-04T13:47:39.073Z,975.37
2018-03-04T13:48:39.164Z,975.34
2018-03-04T13:49:39.244Z,975.35
2018-03-04T13:50:39.298Z,975.36
2018-03-04T13:51:39.386Z,975.34
2018-03-04T13:52:39.481Z,975.26
2018-03-04T13:53:39.539Z,975.25
2018-03-04T13:54:39.629Z,975.21
2018-03-04T13:55:39.703Z,975.20
2018-03-04T13:56:39.857Z,975.21
2018-03-04T13:57:39.867Z,975.19
2018-03-04T13:58:39.945Z,975.18
2018-03-04T13:59:40.067Z,975.21
2018-03-04T14:00:40.172Z,975.25
2018-03-04T14:01:40.185Z,975.32
2018-03-04T14:02:40.248Z,975.24
2018-03-04T14:03:40.334Z,975.23
2018-03-04T14:04:40.420Z,975.23
2018-03-04T14:05:40.507Z,975.25
2018-03-04T14:06:40.578Z,975.22
2018-03-04T14:07:40.699Z,975.23
2018-03-04T14:08:40.747Z,975.19
2018-03-04T14:09:40.825Z,975.17
2018-03-04T14:10:40.907Z,975.10
2018-03-04T14:11:40.967Z,975.15
2018-03-04T14:12:41.062Z,975.15
2018-03-04T14:13:41.135Z,975.15
2018-03-04T14:14:41.217Z,975.17
2018-03-04T14:15:41.285Z,975.17
2018-03-04T14:16:41.371Z,975.17
2018-03-04T14:17:41.460Z,975.13
2018-03-04T14:18:41.533Z,975.15
2018-03-04T14:19:41.605Z,975.09
2018-03-04T14:20:41.687Z,975.11
2018-03-04T14:21:41.773Z,975.12
2018-03-04T14:22:41.853Z,975.13
2018-03-04T14:23:41.923Z,975.07
2018-03-04T14:24:42.007Z,975.06
2018-03-04T14:25:42.089Z,975.08
2018-03-04T14:26:42.251Z,975.03
2018-03-04T14:27:42.320Z,974.99
2018-03-04T14:28:42.325Z,975.01
2018-03-04T14:29:42.408Z,975.01
2018-03-04T14:30:42.488Z,975.01
2018-03-04T14:31:42.587Z,975.03
2018-03-04T14:32:42.644Z,975.02
2018-03-04T14:33:42.719Z,975.04
2018-03-04T14:34:42.804Z,975.02
2018-03-04T14:35:42.880Z,975.01
2018-03-04T14:36:42.966Z,975.03
2018-03-04T14:37:43.041Z,974.99
2018-03-04T14:38:43.164Z,974.98
2018-03-04T14:39:43.212Z,975.00
2018-03-04T14:40:43.318Z,974.97
2018-03-04T14:41:43.353Z,975.01
2018-03-04T14:42:43.453Z,975.04
2018-03-04T14:43:43.515Z,975.03
2018-03-04T14:44:43.585Z,975.04
2018-03-04T14:45:43.676Z,974.98
2018-03-04T14:46:43.747Z,975.04
2018-03-04T14:47:43.827Z,975.06
2018-03-04T14:48:43.920Z,975.08
2018-03-04T14:49:43.991Z,975.07
2018-03-04T14:50:44.079Z,975.06
2018-03-04T14:51:44.254Z,975.03
2018-03-04T14:52:44.237Z,975.05
2018-03-04T14:53:44.367Z,975.03
2018-03-04T14:54:44.382Z,975.06
2018-03-04T14:55:44.487Z,975.03
2018-03-04T14:56:44.652Z,975.04
2018-03-04T14:57:44.622Z,975.00
2018-03-04T14:58:44.697Z,975.00
2018-03-04T14:59:44.775Z,974.96
2018-03-04T15:00:44.862Z,975.00
2018-03-04T15:01:44.968Z,974.96
2018-03-04T15:02:45.024Z,975.01
2018-03-04T15:03:45.090Z,974.94
2018-03-04T15:04:45.189Z,974.95
2018-03-04T15:05:45.249Z,974.93
2018-03-04T15:06:45.331Z,974.92
2018-03-04T15:07:45.477Z,974.94
2018-03-04T15:08:45.488Z,974.89
2018-03-04T15:09:45.576Z,974.84
2018-03-04T15:10:45.647Z,974.78
2018-03-04T15:11:45.736Z,974.78
2018-03-04T15:12:45.802Z,974.77
2018-03-04T15:13:45.876Z,974.75
2018-03-04T15:14:45.959Z,974.76
2018-03-04T15:15:46.042Z,974.73
2018-03-04T15:16:46.125Z,974.68
2018-03-04T15:17:46.202Z,974.74
2018-03-04T15:18:46.305Z,974.67
2018-03-04T15:19:46.355Z,974.64
2018-03-04T15:20:46.432Z,974.61
2018-03-04T15:21:46.701Z,974.60
2018-03-04T15:22:46.593Z,974.54
2018-03-04T15:23:46.669Z,974.53
2018-03-04T15:24:46.798Z,974.51
2018-03-04T15:25:47.524Z,974.48
2018-03-04T15:26:46.941Z,974.49
2018-03-04T15:27:47.008Z,974.44
2018-03-04T15:28:47.064Z,974.43
2018-03-04T15:29:47.153Z,974.40
2018-03-04T15:30:47.236Z,974.40
2018-03-04T15:31:47.302Z,974.42
2018-03-04T15:32:47.397Z,974.33
2018-03-04T15:33:47.467Z,974.24
2018-03-04T15:34:47.562Z,974.26
2018-03-04T15:35:47.657Z,974.22
2018-03-04T15:36:47.711Z,974.26
2018-03-04T15:37:47.781Z,974.26
2018-03-04T15:38:47.875Z,974.23
2018-03-04T15:39:47.981Z,974.20
2018-03-04T15:40:48.046Z,974.26
2018-03-04T15:41:48.118Z,974.18
2018-03-04T15:42:48.184Z,974.23
2018-03-04T15:43:48.267Z,974.22
2018-03-04T15:44:48.352Z,974.20
2018-03-04T15:45:48.427Z,974.19
2018-03-04T15:46:48.502Z,974.15
2018-03-04T15:47:48.594Z,974.19
2018-03-04T15:48:48.672Z,974.15
2018-03-04T15:49:48.768Z,974.23
2018-03-04T15:50:48.856Z,974.25
2018-03-04T15:51:48.932Z,974.26
2018-03-04T15:52:48.988Z,974.25
2018-03-04T15:53:49.082Z,974.25
2018-03-04T15:54:49.143Z,974.23
2018-03-04T15:55:49.224Z,974.26
2018-03-04T15:56:49.384Z,974.26
2018-03-04T15:57:49.395Z,974.28
2018-03-04T15:58:49.487Z,974.26
2018-03-04T15:59:49.544Z,974.29
2018-03-04T16:00:49.647Z,974.27
2018-03-04T16:01:49.709Z,974.31
2018-03-04T16:02:49.802Z,974.26
2018-03-04T16:03:49.859Z,974.29
2018-03-04T16:04:49.945Z,974.29
2018-03-04T16:05:50.032Z,974.25
2018-03-04T16:06:50.109Z,974.23
2018-03-04T16:07:50.223Z,974.25
2018-03-04T16:08:50.266Z,974.24
2018-03-04T16:09:50.348Z,974.24
2018-03-04T16:10:50.640Z,974.20
2018-03-04T16:11:50.609Z,974.17
2018-03-04T16:12:50.598Z,974.22
2018-03-04T16:13:50.701Z,974.13
2018-03-04T16:14:50.753Z,974.13
2018-03-04T16:15:50.834Z,974.10
2018-03-04T16:16:50.907Z,974.13
2018-03-04T16:17:50.989Z,974.10
2018-03-04T16:18:51.074Z,974.11
2018-03-04T16:19:51.145Z,974.11
2018-03-04T16:20:51.237Z,974.13
2018-03-04T16:21:51.340Z,974.12
2018-03-04T16:22:51.385Z,974.15
2018-03-04T16:23:51.468Z,974.12
2018-03-04T16:24:51.559Z,974.12
2018-03-04T16:25:51.626Z,974.10
2018-03-04T16:26:51.718Z,974.09
2018-03-04T16:27:51.785Z,974.09
2018-03-04T16:28:51.876Z,974.09
2018-03-04T16:29:51.951Z,974.08
2018-03-04T16:30:52.025Z,974.06
2018-03-04T16:31:52.115Z,974.02
2018-03-04T16:32:52.211Z,974.01
2018-03-04T16:33:52.284Z,974.04
2018-03-04T16:34:52.354Z,974.00
2018-03-04T16:35:52.462Z,973.99
2018-03-04T16:36:52.576Z,974.02
2018-03-04T16:37:52.585Z,974.02
2018-03-04T16:38:52.751Z,974.01
2018-03-04T16:39:52.755Z,974.05
2018-03-04T16:40:52.870Z,974.04
2018-03-04T16:41:52.926Z,974.07
2018-03-04T16:42:52.996Z,974.05
2018-03-04T16:43:53.078Z,974.01
2018-03-04T16:44:53.156Z,974.05
2018-03-04T16:45:53.235Z,974.07
2018-03-04T16:46:53.305Z,974.05
2018-03-04T16:47:53.438Z,973.99
2018-03-04T16:48:53.478Z,974.01
2018-03-04T16:49:53.566Z,973.99
2018-03-04T16:50:53.627Z,973.99
2018-03-04T16:51:53.723Z,973.96
2018-03-04T16:52:53.786Z,973.99
2018-03-04T16:53:53.870Z,973.96
2018-03-04T16:54:53.950Z,973.94
2018-03-04T16:55:54.026Z,973.93
2018-03-04T16:56:54.125Z,973.91
2018-03-04T16:57:54.187Z,973.94
2018-03-04T16:58:54.293Z,973.90
2018-03-04T16:59:54.351Z,973.86
2018-03-04T17:00:54.428Z,973.86
2018-03-04T17:01:54.512Z,973.87
2018-03-04T17:02:54.596Z,973.84
2018-03-04T17:03:54.671Z,973.83
2018-03-04T17:04:54.752Z,973.83
2018-03-04T17:05:54.841Z,973.84
2018-03-04T17:06:54.909Z,973.85
2018-03-04T17:07:54.986Z,973.86
2018-03-04T17:08:55.081Z,973.88
2018-03-04T17:09:55.151Z,973.86
2018-03-04T17:10:55.225Z,973.84
2018-03-04T17:11:55.319Z,973.82
2018-03-04T17:12:55.396Z,973.83
2018-03-04T17:13:55.477Z,973.82
2018-03-04T17:14:55.565Z,973.83
2018-03-04T17:15:55.644Z,973.81
2018-03-04T17:16:55.711Z,973.74
2018-03-04T17:17:55.795Z,973.70
2018-03-04T17:18:55.860Z,973.75
2018-03-04T17:19:55.951Z,973.75
2018-03-04T17:20:56.031Z,973.77
2018-03-04T17:21:56.115Z,973.75
2018-03-04T17:22:56.198Z,973.70
2018-03-04T17:23:56.279Z,973.69
2018-03-04T17:24:56.349Z,973.75
2018-03-04T17:25:56.437Z,973.73
2018-03-04T17:26:56.553Z,973.78
2018-03-04T17:27:56.588Z,973.79
2018-03-04T17:28:56.676Z,973.84
2018-03-04T17:29:56.760Z,973.80
2018-03-04T17:30:56.854Z,973.82
2018-03-04T17:31:56.912Z,973.81
2018-03-04T17:32:56.992Z,973.85
2018-03-04T17:33:57.080Z,973.86
2018-03-04T17:34:57.170Z,973.87
2018-03-04T17:35:57.226Z,973.88
2018-03-04T17:36:57.317Z,973.92
2018-03-04T17:37:57.409Z,974.00
2018-03-04T17:38:57.500Z,973.96
2018-03-04T17:39:57.552Z,974.07
2018-03-04T17:40:57.627Z,974.11
2018-03-04T17:41:57.718Z,974.09
2018-03-04T17:42:57.782Z,974.18
2018-03-04T17:43:57.863Z,974.21
2018-03-04T17:44:57.950Z,974.15
2018-03-04T17:45:58.055Z,974.22
2018-03-04T17:46:58.093Z,974.19
2018-03-04T17:47:58.189Z,974.18
2018-03-04T17:48:58.277Z,974.22
2018-03-04T17:49:58.345Z,974.18
2018-03-04T17:50:58.421Z,974.26
2018-03-04T17:51:58.500Z,974.25
2018-03-04T17:52:58.577Z,974.31
2018-03-04T17:53:58.650Z,974.27
2018-03-04T17:54:58.734Z,974.38
2018-03-04T17:55:58.830Z,974.35
2018-03-04T17:56:58.898Z,974.27
2018-03-04T17:57:58.971Z,974.23
2018-03-04T17:58:59.051Z,974.16
2018-03-04T17:59:59.130Z,974.15
2018-03-04T18:00:59.205Z,974.14
2018-03-04T18:01:59.298Z,974.03
2018-03-04T18:02:59.367Z,973.94
2018-03-04T18:03:59.445Z,973.85
2018-03-04T18:04:59.538Z,973.73
2018-03-04T18:05:59.601Z,973.55
2018-03-04T18:06:59.684Z,973.43
2018-03-04T18:07:59.781Z,973.42
2018-03-04T18:08:59.861Z,973.41
2018-03-04T18:09:59.925Z,973.53
2018-03-04T18:11:00.003Z,973.59
2018-03-04T18:12:00.083Z,973.65
2018-03-04T18:13:00.159Z,973.66
2018-03-04T18:14:00.248Z,973.63
2018-03-04T18:15:00.319Z,973.61
2018-03-04T18:16:00.403Z,973.62
2018-03-04T18:17:00.468Z,973.62
2018-03-04T18:18:00.550Z,973.66
2018-03-04T18:19:00.628Z,973.65
2018-03-04T18:20:00.716Z,973.61
2018-03-04T18:21:00.788Z,973.64
2018-03-04T18:22:00.885Z,973.55
2018-03-04T18:23:00.960Z,973.52
2018-03-04T18:24:01.050Z,973.48
2018-03-04T18:25:01.132Z,973.47
2018-03-04T18:26:01.223Z,973.41
2018-03-04T18:27:01.266Z,973.39
2018-03-04T18:28:01.373Z,973.38
2018-03-04T18:29:01.418Z,973.36
2018-03-04T18:30:01.517Z,973.34
2018-03-04T18:31:01.595Z,973.34
2018-03-04T18:32:01.682Z,973.41
2018-03-04T18:33:01.738Z,973.38
2018-03-04T18:34:01.910Z,973.41
2018-03-04T18:35:02.117Z,973.36
2018-03-04T18:36:02.498Z,973.40
2018-03-04T18:37:02.054Z,973.37
2018-03-04T18:38:02.167Z,973.37
2018-03-04T18:39:02.277Z,973.41
2018-03-04T18:40:02.304Z,973.44
2018-03-04T18:41:02.398Z,973.38
2018-03-04T18:42:02.506Z,973.41
2018-03-04T18:43:02.533Z,973.42
2018-03-04T18:44:02.617Z,973.48
2018-03-04T18:45:02.697Z,973.51
2018-03-04T18:46:02.815Z,973.44
2018-03-04T18:47:02.845Z,973.51
2018-03-04T18:48:02.933Z,973.44
2018-03-04T18:49:03.010Z,973.50
2018-03-04T18:50:03.084Z,973.52
2018-03-04T18:51:03.188Z,973.49
2018-03-04T18:52:03.237Z,973.55
2018-03-04T18:53:03.327Z,973.60
2018-03-04T18:54:03.415Z,973.59
2018-03-04T18:55:03.501Z,973.55
2018-03-04T18:56:03.571Z,973.57
2018-03-04T18:57:03.653Z,973.55
2018-03-04T18:58:03.707Z,973.53
2018-03-04T18:59:03.814Z,973.53
2018-03-04T19:00:03.877Z,973.49
2018-03-04T19:01:03.955Z,973.53
2018-03-04T19:02:04.062Z,973.56
2018-03-04T19:03:04.126Z,973.53
2018-03-04T19:04:04.190Z,973.51
2018-03-04T19:05:04.270Z,973.47
2018-03-04T19:06:04.354Z,973.41
2018-03-04T19:07:04.425Z,973.50
2018-03-04T19:08:04.512Z,973.48
2018-03-04T19:09:04.594Z,973.47
2018-03-04T19:10:04.686Z,973.43
2018-03-04T19:11:05.594Z,973.53
2018-03-04T19:12:04.822Z,973.48
2018-03-04T19:13:04.917Z,973.48
2018-03-04T19:14:04.982Z,973.52
2018-03-04T19:15:05.053Z,973.41
2018-03-04T19:16:05.146Z,973.47
2018-03-04T19:17:05.220Z,973.42
2018-03-04T19:18:05.314Z,973.40
2018-03-04T19:19:05.385Z,973.39
2018-03-04T19:20:05.455Z,973.36
2018-03-04T19:21:05.598Z,973.27
2018-03-04T19:22:05.619Z,973.25
2018-03-04T19:23:05.711Z,973.26
2018-03-04T19:24:05.834Z,973.21
2018-03-04T19:25:05.854Z,973.16
2018-03-04T19:26:10.662Z,973.04
2018-03-04T19:27:06.015Z,973.04
2018-03-04T19:28:06.086Z,973.09
2018-03-04T19:29:06.172Z,973.04
2018-03-04T19:30:06.245Z,973.03
2018-03-04T19:31:06.318Z,973.02
2018-03-04T19:32:06.428Z,972.91
2018-03-04T19:33:06.479Z,972.97
2018-03-04T19:34:06.562Z,972.95
2018-03-04T19:35:06.631Z,972.88
2018-03-04T19:36:06.708Z,972.96
2018-03-04T19:37:06.809Z,972.97
2018-03-04T19:38:06.919Z,972.99
2018-03-04T19:39:06.954Z,972.97
2018-03-04T19:40:07.026Z,972.97
2018-03-04T19:41:07.112Z,972.97
2018-03-04T19:42:07.189Z,972.93
2018-03-04T19:43:07.280Z,972.88
2018-03-04T19:44:07.362Z,972.90
2018-03-04T19:45:07.434Z,972.79
2018-03-04T19:46:07.503Z,972.86
2018-03-04T19:47:07.598Z,972.79
2018-03-04T19:48:07.706Z,972.75
2018-03-04T19:49:07.756Z,972.76
2018-03-04T19:50:07.849Z,972.72
2018-03-04T19:51:07.903Z,972.68
2018-03-04T19:52:07.972Z,972.70
2018-03-04T19:53:08.083Z,972.67
2018-03-04T19:54:08.137Z,972.71
2018-03-04T19:55:08.212Z,972.68
2018-03-04T19:56:08.294Z,972.69
2018-03-04T19:57:08.400Z,972.65
2018-03-04T19:58:08.457Z,972.63
2018-03-04T19:59:08.556Z,972.63
2018-03-04T20:00:08.613Z,972.62
2018-03-04T20:01:08.693Z,972.65
2018-03-04T20:02:08.760Z,972.60
2018-03-04T20:03:08.845Z,972.54
2018-03-04T20:04:08.927Z,972.54
2018-03-04T20:05:09.099Z,972.56
2018-03-04T20:06:09.091Z,972.56
2018-03-04T20:07:09.229Z,972.52
2018-03-04T20:08:09.234Z,972.49
2018-03-04T20:09:09.324Z,972.47
2018-03-04T20:10:09.400Z,972.46
2018-03-04T20:11:09.476Z,972.48
2018-03-04T20:12:09.556Z,972.47
2018-03-04T20:13:09.636Z,972.43
2018-03-04T20:14:09.720Z,972.48
2018-03-04T20:15:09.845Z,972.54
2018-03-04T20:16:09.877Z,972.48
2018-03-04T20:17:09.957Z,972.54
2018-03-04T20:18:10.038Z,972.51
2018-03-04T20:19:10.108Z,972.57
2018-03-04T20:20:10.194Z,972.62
2018-03-04T20:21:10.271Z,972.58
2018-03-04T20:22:10.352Z,972.50
2018-03-04T20:23:10.429Z,972.56
2018-03-04T20:24:10.495Z,972.47
2018-03-04T20:25:10.583Z,972.49
2018-03-04T20:26:10.732Z,972.45
2018-03-04T20:27:10.728Z,972.44
2018-03-04T20:28:10.827Z,972.39
2018-03-04T20:29:10.927Z,972.43
2018-03-04T20:30:10.966Z,972.44
2018-03-04T20:31:11.064Z,972.39
2018-03-04T20:32:11.226Z,972.35
2018-03-04T20:33:11.215Z,972.43
2018-03-04T20:34:11.282Z,972.29
2018-03-04T20:35:11.374Z,972.34
2018-03-04T20:36:11.458Z,972.40
2018-03-04T20:37:11.534Z,972.18
2018-03-04T20:38:11.602Z,972.27
2018-03-04T20:39:11.678Z,972.39
2018-03-04T20:40:11.762Z,972.26
2018-03-04T20:41:11.839Z,972.35
2018-03-04T20:42:11.938Z,972.42
2018-03-04T20:43:12.014Z,972.52
2018-03-04T20:44:12.085Z,972.48
2018-03-04T20:45:12.177Z,972.52
2018-03-04T20:46:12.233Z,972.67
2018-03-04T20:47:12.329Z,972.55
2018-03-04T20:48:12.399Z,972.57
2018-03-04T20:49:12.482Z,972.47
2018-03-04T20:50:12.547Z,972.53
2018-03-04T20:51:12.632Z,972.51
2018-03-04T20:52:12.706Z,972.55
2018-03-04T20:53:12.784Z,972.56
2018-03-04T20:54:12.858Z,972.50
2018-03-04T20:55:12.960Z,972.33
2018-03-04T20:56:13.036Z,972.35
2018-03-04T20:57:13.108Z,972.38
2018-03-04T20:58:13.171Z,972.40
2018-03-04T20:59:13.258Z,972.39
2018-03-04T21:00:13.368Z,972.42
2018-03-04T21:01:13.417Z,972.33
2018-03-04T21:02:13.520Z,972.48
2018-03-04T21:03:13.571Z,972.55
2018-03-04T21:04:13.646Z,972.54
2018-03-04T21:05:13.733Z,972.59
2018-03-04T21:06:13.805Z,972.65
2018-03-04T21:07:13.887Z,972.59
2018-03-04T21:08:13.968Z,972.59
2018-03-04T21:09:14.040Z,972.65
2018-03-04T21:10:14.124Z,972.60
2018-03-04T21:11:14.207Z,972.68
2018-03-04T21:12:14.276Z,972.70
2018-03-04T21:13:14.357Z,972.76
2018-03-04T21:14:14.448Z,972.70
2018-03-04T21:15:14.590Z,972.79
2018-03-04T21:16:14.601Z,972.70
2018-03-04T21:17:14.696Z,972.80
2018-03-04T21:18:14.752Z,972.77
2018-03-04T21:19:14.826Z,972.80
2018-03-04T21:20:14.921Z,972.82
2018-03-04T21:21:14.989Z,972.85
2018-03-04T21:22:15.071Z,972.84
2018-03-04T21:23:15.164Z,972.93
2018-03-04T21:24:15.229Z,972.92
2018-03-04T21:25:15.302Z,972.93
2018-03-04T21:26:15.399Z,972.90
2018-03-04T21:27:15.455Z,972.96
2018-03-04T21:28:15.539Z,973.01
2018-03-04T21:29:15.648Z,973.01
2018-03-04T21:30:15.696Z,973.12
2018-03-04T21:31:15.773Z,973.09
2018-03-04T21:32:15.854Z,973.08
2018-03-04T21:33:15.935Z,973.07
2018-03-04T21:34:16.018Z,973.09
2018-03-04T21:35:16.091Z,973.11
2018-03-04T21:36:16.183Z,973.15
2018-03-04T21:37:16.250Z,973.10
2018-03-04T21:38:16.322Z,973.13
2018-03-04T21:39:16.398Z,973.14
2018-03-04T21:40:16.489Z,973.20
2018-03-04T21:41:16.561Z,973.14
2018-03-04T21:42:16.645Z,973.16
2018-03-04T21:43:16.716Z,973.12
2018-03-04T21:44:16.805Z,973.12
2018-03-04T21:45:16.876Z,973.22
2018-03-04T21:46:16.956Z,973.19
2018-03-04T21:47:17.040Z,973.16
2018-03-04T21:48:17.113Z,973.19
2018-03-04T21:49:17.190Z,973.23
2018-03-04T21:50:17.293Z,973.22
2018-03-04T21:51:17.424Z,973.27
2018-03-04T21:52:17.429Z,973.32
2018-03-04T21:53:17.507Z,973.35
2018-03-04T21:54:17.587Z,973.32
2018-03-04T21:55:17.670Z,973.26
2018-03-04T21:56:17.745Z,973.28
2018-03-04T21:57:17.821Z,973.27
2018-03-04T21:58:18.878Z,973.28
2018-03-04T21:59:18.926Z,973.26
2018-03-04T22:00:18.068Z,973.20
2018-03-04T22:01:18.189Z,973.22
2018-03-04T22:02:18.219Z,973.27
2018-03-04T22:03:18.303Z,973.23
2018-03-04T22:04:18.408Z,973.22
2018-03-04T22:05:18.462Z,973.30
2018-03-04T22:06:18.537Z,973.27
2018-03-04T22:07:18.606Z,973.40
2018-03-04T22:08:18.680Z,973.31
2018-03-04T22:09:18.758Z,973.29
2018-03-04T22:10:18.959Z,973.27
2018-03-04T22:11:18.939Z,973.33
2018-03-04T22:12:19.007Z,973.34
2018-03-04T22:13:19.071Z,973.33
2018-03-04T22:14:19.173Z,973.34
2018-03-04T22:15:19.230Z,973.26
2018-03-04T22:16:19.311Z,973.29
2018-03-04T22:17:19.411Z,973.31
2018-03-04T22:18:19.477Z,973.28
2018-03-04T22:19:19.562Z,973.32
2018-03-04T22:20:19.628Z,973.32
2018-03-04T22:21:19.712Z,973.38
2018-03-04T22:22:19.802Z,973.39
2018-03-04T22:23:19.882Z,973.39
2018-03-04T22:24:19.967Z,973.45
2018-03-04T22:25:20.052Z,973.43
2018-03-04T22:26:20.103Z,973.46
2018-03-04T22:27:20.181Z,973.47
2018-03-04T22:28:20.249Z,973.51
2018-03-04T22:29:20.351Z,973.50
2018-03-04T22:30:20.415Z,973.48
2018-03-04T22:31:20.490Z,973.56
2018-03-04T22:32:20.576Z,973.57
2018-03-04T22:33:20.707Z,973.59
2018-03-04T22:34:20.733Z,973.65
2018-03-04T22:35:20.810Z,973.68
2018-03-04T22:36:20.883Z,973.72
2018-03-04T22:37:21.984Z,973.60
2018-03-04T22:38:21.044Z,973.69
2018-03-04T22:39:21.136Z,973.76
2018-03-04T22:40:21.220Z,973.75
2018-03-04T22:41:21.291Z,973.80
2018-03-04T22:42:21.356Z,973.81
2018-03-04T22:43:21.489Z,973.80
2018-03-04T22:44:21.511Z,973.81
2018-03-04T22:45:21.752Z,973.90
2018-03-04T22:46:21.673Z,973.82
2018-03-04T22:47:21.770Z,973.97
2018-03-04T22:48:21.839Z,973.96
2018-03-04T22:49:21.916Z,974.01
2018-03-04T22:50:21.998Z,974.03
2018-03-04T22:51:22.063Z,974.03
2018-03-04T22:52:22.144Z,973.97
2018-03-04T22:53:22.222Z,974.00
2018-03-04T22:54:22.298Z,974.03
2018-03-04T22:55:22.372Z,974.11
2018-03-04T22:56:27.223Z,974.14
2018-03-04T22:57:22.557Z,974.20
2018-03-04T22:58:22.614Z,974.19
2018-03-04T22:59:22.688Z,974.21
2018-03-04T23:00:22.794Z,974.25
2018-03-04T23:01:22.848Z,974.33
2018-03-04T23:02:22.934Z,974.28
2018-03-04T23:03:23.011Z,974.29
2018-03-04T23:04:23.091Z,974.35
2018-03-04T23:05:23.172Z,974.40
2018-03-04T23:06:23.242Z,974.38
2018-03-04T23:07:23.323Z,974.43
2018-03-04T23:08:23.401Z,974.43
2018-03-04T23:09:23.483Z,974.43
2018-03-04T23:10:23.569Z,974.42
2018-03-04T23:11:23.635Z,974.42
2018-03-04T23:12:23.706Z,974.44
2018-03-04T23:13:23.794Z,974.45
2018-03-04T23:14:24.154Z,974.49
2018-03-04T23:15:23.943Z,974.48
2018-03-04T23:16:24.022Z,974.50
2018-03-04T23:17:24.120Z,974.46
2018-03-04T23:18:24.269Z,974.54
2018-03-04T23:19:24.278Z,974.55
2018-03-04T23:20:24.340Z,974.57
2018-03-04T23:21:24.430Z,974.58
2018-03-04T23:22:24.509Z,974.57
2018-03-04T23:23:24.573Z,974.57
2018-03-04T23:24:24.671Z,974.57
2018-03-04T23:25:24.735Z,974.60
2018-03-04T23:26:24.821Z,974.62
2018-03-04T23:27:24.901Z,974.62
2018-03-04T23:28:24.973Z,974.59
2018-03-04T23:29:25.062Z,974.63
2018-03-04T23:30:25.130Z,974.65
2018-03-04T23:31:25.256Z,974.63
2018-03-04T23:32:25.282Z,974.68
2018-03-04T23:33:25.363Z,974.63
2018-03-04T23:34:25.447Z,974.62
2018-03-04T23:35:25.601Z,974.66
2018-03-04T23:36:25.600Z,974.66
2018-03-04T23:37:25.674Z,974.67
2018-03-04T23:38:25.759Z,974.65
2018-03-04T23:39:25.830Z,974.71
2018-03-04T23:40:25.972Z,974.70
2018-03-04T23:41:25.994Z,974.70
2018-03-04T23:42:26.089Z,974.68
2018-03-04T23:43:26.142Z,974.67
2018-03-04T23:44:26.224Z,974.70
2018-03-04T23:45:26.305Z,974.72
2018-03-04T23:46:26.379Z,974.71
2018-03-04T23:47:26.456Z,974.73
2018-03-04T23:48:26.537Z,974.71
2018-03-04T23:49:28.090Z,974.74
2018-03-04T23:50:28.133Z,974.73
2018-03-04T23:51:28.180Z,974.71
2018-03-04T23:52:28.254Z,974.75
2018-03-04T23:53:26.930Z,974.75
2018-03-04T23:54:27.013Z,974.76
2018-03-04T23:55:27.092Z,974.72
2018-03-04T23:56:27.175Z,974.75
2018-03-04T23:57:27.248Z,974.73
2018-03-04T23:58:27.330Z,974.80
2018-03-04T23:59:27.416Z,974.82
